Little Chute, WI (54140)

4:09 PM CDT on August 23, 2016 (GMT -0500)
Park Avenue | | Change Station

Elev 715 ft 44.28 °N, 88.31 °W | Updated 5 minutes ago

Mostly Cloudy
Mostly Cloudy
83.1 °F
Feels Like 86 °F
N
3.7
Wind Variable Wind from SSW
Gusts 12.4 mph

Today
High -- | Low -- °F
--% Chance of Precip.
Yesterday
High -- | Low -- °F
Precip. -- in
Pressure 30.07 in
Visibility 10.0 miles
Clouds Mostly Cloudy 4000 ft
Mostly Cloudy 12000 ft
Heat Index 86 °F
Dew Point 68 °F
Humidity 60%
Rainfall Not available.
Snow Depth Not available.
6:06 AM 7:44 PM
Waning Gibbous, 64% visible
METAR KATW 232045Z 20014G20KT 10SM BKN040 BKN120 27/15 A3007
Pressure 30.07 in
Visibility 10.0 miles
Clouds Mostly Cloudy 4000 ft
Mostly Cloudy 12000 ft
Heat Index 86 °F
Dew Point 68 °F
Humidity 60%
Rainfall Not available.
Snow Depth Not available.
6:06 AM 7:44 PM
Waning Gibbous, 64% visible
METAR KATW 232045Z 20014G20KT 10SM BKN040 BKN120 27/15 A3007

10-Day Weather Forecast

Almanac

Astronomy

Aug. 23, 2016 Rise Set
Actual Time
Civil Twilight
Nautical Twilight
Astronomical Twilight
Moon
Length of Visible Light
Length of Day
Tomorrow will be .
, % of the Moon is Illuminated

Today's Extremes

State Highs State Lows

Community

WunderPhotos

Upload Photos

1,934,455 photos uploaded!

WunderBlog® & News

Nearby

Air Quality

  Air Quality AQ Index Pollutant
Not available.

Snow Depth

Station Depth Elevation

Earthquake Activity

City Distance Mag. Time & Date
Minimum magnitude displayed is 2.5.

Coastal Water Temperatures

Place Temperature

Stations

Nearby Weather Stations

Station Location Temp. Windchill Dew Point Humidity Wind Precip. Elev Updated Type
                   

Watches & Warnings

There are currently no watches in effect.